createdAt,value
2017-05-01T00:00:51.373Z,958
2017-05-01T00:02:00.094Z,957.87
2017-05-01T00:03:09.485Z,957.86
2017-05-01T00:04:19.183Z,957.79
2017-05-01T00:05:28.882Z,957.91
2017-05-01T00:06:37.968Z,957.84
2017-05-01T00:07:47.343Z,957.8
2017-05-01T00:08:56.379Z,957.86
2017-05-01T00:10:05.770Z,957.75
2017-05-01T00:11:14.550Z,957.83
2017-05-01T00:12:23.641Z,957.77
2017-05-01T00:13:32.406Z,957.81
2017-05-01T00:14:41.482Z,957.79
2017-05-01T00:15:50.554Z,957.92
2017-05-01T00:17:00.091Z,957.82
2017-05-01T00:18:08.862Z,957.8
2017-05-01T00:19:17.642Z,957.83
2017-05-01T00:20:27.024Z,957.92
2017-05-01T00:21:36.055Z,957.85
2017-05-01T00:22:45.343Z,958.01
2017-05-01T00:23:54.418Z,957.98
2017-05-01T00:25:03.791Z,957.87
2017-05-01T00:26:12.566Z,957.87
2017-05-01T00:27:21.648Z,957.86
2017-05-01T00:28:31.043Z,957.87
2017-05-01T00:29:40.123Z,957.84
2017-05-01T00:30:49.750Z,957.99
2017-05-01T00:31:58.811Z,957.88
2017-05-01T00:33:08.216Z,958
2017-05-01T00:34:17.247Z,958.03
2017-05-01T00:35:26.320Z,957.93
2017-05-01T00:36:35.654Z,957.92
2017-05-01T00:37:44.431Z,957.95
2017-05-01T00:38:53.821Z,957.97
2017-05-01T00:40:03.217Z,957.97
2017-05-01T00:41:11.990Z,958.01
2017-05-01T00:42:21.101Z,957.93
2017-05-01T00:43:30.195Z,957.91
2017-05-01T00:44:39.578Z,957.9
2017-05-01T00:45:48.970Z,957.94
2017-05-01T00:46:58.064Z,958.09
2017-05-01T00:48:07.152Z,957.92
2017-05-01T00:49:16.553Z,957.9
2017-05-01T00:50:25.946Z,957.91
2017-05-01T00:51:35.018Z,957.91
2017-05-01T00:52:44.002Z,957.88
2017-05-01T00:53:53.405Z,957.87
2017-05-01T00:55:02.937Z,957.86
2017-05-01T00:56:11.973Z,957.81
2017-05-01T00:57:21.052Z,957.88
2017-05-01T00:58:30.437Z,957.82
2017-05-01T00:59:39.510Z,957.97
2017-05-01T01:00:48.603Z,957.8
2017-05-01T01:01:57.394Z,957.82
2017-05-01T01:03:06.787Z,957.79
2017-05-01T01:04:16.797Z,957.8
2017-05-01T01:05:26.116Z,957.87
2017-05-01T01:06:34.843Z,957.79
2017-05-01T01:07:43.607Z,957.83
2017-05-01T01:08:52.629Z,957.79
2017-05-01T01:10:02.323Z,957.92
2017-05-01T01:11:11.417Z,957.73
2017-05-01T01:12:20.502Z,957.75
2017-05-01T01:13:29.888Z,957.68
2017-05-01T01:14:39.265Z,957.73
2017-05-01T01:15:47.987Z,957.67
2017-05-01T01:16:56.774Z,957.66
2017-05-01T01:18:06.178Z,957.68
2017-05-01T01:19:15.263Z,957.72
2017-05-01T01:20:24.646Z,957.71
2017-05-01T01:21:33.706Z,957.71
2017-05-01T01:22:42.770Z,957.69
2017-05-01T01:23:51.856Z,957.75
2017-05-01T01:25:01.231Z,957.66
2017-05-01T01:26:10.921Z,957.65
2017-05-01T01:27:19.997Z,957.71
2017-05-01T01:28:28.730Z,957.64
2017-05-01T01:29:37.813Z,957.64
2017-05-01T01:30:46.882Z,957.64
2017-05-01T01:31:55.904Z,957.73
2017-05-01T01:33:04.998Z,957.64
2017-05-01T01:34:15.003Z,957.64
2017-05-01T01:35:24.090Z,957.65
2017-05-01T01:36:33.165Z,957.7
2017-05-01T01:37:41.890Z,957.7
2017-05-01T01:38:51.273Z,957.73
2017-05-01T01:40:01.109Z,957.67
2017-05-01T01:41:09.837Z,957.66
2017-05-01T01:42:18.919Z,957.63
2017-05-01T01:43:28.004Z,957.64
2017-05-01T01:44:37.094Z,957.76
2017-05-01T01:45:46.191Z,957.74
2017-05-01T01:46:55.270Z,957.68
2017-05-01T01:48:04.640Z,957.67
2017-05-01T01:49:13.360Z,957.66
2017-05-01T01:50:22.383Z,957.63
2017-05-01T01:51:31.716Z,957.64
2017-05-01T01:52:40.799Z,957.58
2017-05-01T01:53:50.180Z,957.62
2017-05-01T01:54:59.220Z,957.6
2017-05-01T01:56:08.134Z,957.63
2017-05-01T01:57:17.253Z,957.6
2017-05-01T01:58:26.633Z,957.56
2017-05-01T01:59:35.715Z,957.57
2017-05-01T02:00:44.496Z,957.61
2017-05-01T02:01:53.260Z,957.62
2017-05-01T02:03:02.590Z,957.6
2017-05-01T02:04:11.669Z,957.62
2017-05-01T02:05:20.764Z,957.58
2017-05-01T02:06:30.138Z,957.59
2017-05-01T02:07:39.164Z,957.64
2017-05-01T02:08:48.287Z,957.62
2017-05-01T02:09:57.680Z,957.55
2017-05-01T02:11:06.775Z,957.58
2017-05-01T02:12:15.539Z,957.57
2017-05-01T02:13:24.565Z,957.7
2017-05-01T02:14:33.345Z,957.63
2017-05-01T02:15:42.426Z,957.6
2017-05-01T02:16:51.201Z,957.7
2017-05-01T02:17:59.978Z,957.74
2017-05-01T02:19:09.381Z,957.83
2017-05-01T02:21:43.022Z,957.92
2017-05-01T02:22:52.399Z,957.94
2017-05-01T02:24:01.780Z,958.06
2017-05-01T02:25:10.857Z,957.99
2017-05-01T02:26:20.229Z,957.97
2017-05-01T02:27:28.995Z,957.93
2017-05-01T02:28:38.678Z,957.92
2017-05-01T02:29:47.997Z,957.96
2017-05-01T02:30:57.389Z,957.86
2017-05-01T02:32:06.479Z,957.92
2017-05-01T02:33:16.158Z,957.95
2017-05-01T02:34:25.232Z,957.95
2017-05-01T02:35:33.995Z,957.97
2017-05-01T02:36:42.745Z,958.02
2017-05-01T02:37:51.761Z,958.01
2017-05-01T02:39:00.964Z,957.93
2017-05-01T02:40:09.977Z,957.92
2017-05-01T02:41:19.046Z,957.98
2017-05-01T02:42:28.418Z,957.89
2017-05-01T02:43:37.790Z,957.97
2017-05-01T02:44:46.888Z,957.99
2017-05-01T02:45:55.904Z,957.93
2017-05-01T02:47:04.671Z,957.96
2017-05-01T02:48:13.751Z,957.94
2017-05-01T02:49:22.817Z,957.99
2017-05-01T02:50:32.439Z,958.02
2017-05-01T02:51:41.511Z,958.03
2017-05-01T02:52:50.277Z,958
2017-05-01T02:53:59.614Z,958.05
2017-05-01T02:55:09.531Z,958.01
2017-05-01T02:56:18.548Z,958.01
2017-05-01T02:57:27.626Z,958.06
2017-05-01T02:58:37.325Z,958.02
2017-05-01T02:59:46.714Z,958.02
2017-05-01T03:00:55.793Z,958.04
2017-05-01T03:02:04.558Z,958.08
2017-05-01T03:03:13.321Z,957.97
2017-05-01T03:04:22.392Z,958
2017-05-01T03:05:32.289Z,958.01
2017-05-01T03:06:41.069Z,958.04
2017-05-01T03:07:50.154Z,958.02
2017-05-01T03:08:59.541Z,958.02
2017-05-01T03:10:08.569Z,957.98
2017-05-01T03:11:17.925Z,958.04
2017-05-01T03:12:26.649Z,958.03
2017-05-01T03:13:36.334Z,958.02
2017-05-01T03:14:45.454Z,958.02
2017-05-01T03:15:54.839Z,958.08
2017-05-01T03:17:04.880Z,958.01
2017-05-01T03:18:13.947Z,958.03
2017-05-01T03:19:23.326Z,958.11
2017-05-01T03:20:32.099Z,958.09
2017-05-01T03:21:40.865Z,958.09
2017-05-01T03:22:49.940Z,958.1
2017-05-01T03:23:59.314Z,958.1
2017-05-01T03:25:08.735Z,958.19
2017-05-01T03:26:17.484Z,958.16
2017-05-01T03:27:26.545Z,958.16
2017-05-01T03:28:35.921Z,958.15
2017-05-01T03:29:46.210Z,958.16
2017-05-01T03:30:55.930Z,958.11
2017-05-01T03:32:04.950Z,958.18
2017-05-01T03:33:14.013Z,958.14
2017-05-01T03:34:23.994Z,958.15
2017-05-01T03:35:33.314Z,958.14
2017-05-01T03:36:42.377Z,958.12
2017-05-01T03:37:51.152Z,958.12
2017-05-01T03:39:00.524Z,958.15
2017-05-01T03:40:09.854Z,958.16
2017-05-01T03:41:18.925Z,958.13
2017-05-01T03:42:27.686Z,958.2
2017-05-01T03:43:37.047Z,958.28
2017-05-01T03:44:46.370Z,958.17
2017-05-01T03:45:55.448Z,958.22
2017-05-01T03:47:04.814Z,958.2
2017-05-01T03:48:14.184Z,958.2
2017-05-01T03:49:23.820Z,958.23
2017-05-01T03:50:33.187Z,958.23
2017-05-01T03:51:41.953Z,958.21
2017-05-01T03:52:51.325Z,958.21
2017-05-01T03:54:00.695Z,958.24
2017-05-01T03:55:09.709Z,958.24
2017-05-01T03:56:19.083Z,958.33
2017-05-01T03:57:27.849Z,958.22
2017-05-01T03:58:37.526Z,958.27
2017-05-01T03:59:46.922Z,958.3
2017-05-01T04:00:56.615Z,958.27
2017-05-01T04:02:05.679Z,958.33
2017-05-01T04:03:14.749Z,958.2
2017-05-01T04:04:24.123Z,958.28
2017-05-01T04:05:33.199Z,958.29
2017-05-01T04:06:42.265Z,958.32
2017-05-01T04:07:51.320Z,958.31
2017-05-01T04:09:00.357Z,958.31
2017-05-01T04:10:09.735Z,958.35
2017-05-01T04:11:18.505Z,958.38
2017-05-01T04:12:27.577Z,958.38
2017-05-01T04:13:37.280Z,958.43
2017-05-01T04:14:46.356Z,958.41
2017-05-01T04:15:55.726Z,958.4
2017-05-01T04:17:05.040Z,958.42
2017-05-01T04:18:14.726Z,958.4
2017-05-01T04:19:23.784Z,958.43
2017-05-01T04:20:32.518Z,958.38
2017-05-01T04:21:41.593Z,958.39
2017-05-01T04:22:50.659Z,958.4
2017-05-01T04:24:00.226Z,958.42
2017-05-01T04:25:09.648Z,958.39
2017-05-01T04:26:18.721Z,958.4
2017-05-01T04:27:27.483Z,958.42
2017-05-01T04:28:37.475Z,958.43
2017-05-01T04:29:46.861Z,958.51
2017-05-01T04:30:55.611Z,958.43
2017-05-01T04:32:04.313Z,958.58
2017-05-01T04:33:13.320Z,958.55
2017-05-01T04:34:22.638Z,958.55
2017-05-01T04:35:32.018Z,958.59
2017-05-01T04:36:40.783Z,958.61
2017-05-01T04:37:50.498Z,958.63
2017-05-01T04:38:59.875Z,958.54
2017-05-01T04:40:08.949Z,958.59
2017-05-01T04:41:18.014Z,958.59
2017-05-01T04:42:27.074Z,958.56
2017-05-01T04:43:36.158Z,958.6
2017-05-01T04:44:45.232Z,958.65
2017-05-01T04:45:54.651Z,958.64
2017-05-01T04:47:03.711Z,958.72
2017-05-01T04:48:12.461Z,958.65
2017-05-01T04:49:21.173Z,958.65
2017-05-01T04:50:30.856Z,958.73
2017-05-01T04:51:39.932Z,958.71
2017-05-01T04:52:49.595Z,958.71
2017-05-01T04:53:59.220Z,958.72
2017-05-01T04:55:08.317Z,958.75
2017-05-01T04:56:17.095Z,958.72
2017-05-01T04:57:25.864Z,958.76
2017-05-01T04:58:34.937Z,958.73
2017-05-01T04:59:44.249Z,958.71
2017-05-01T05:00:53.268Z,958.74
2017-05-01T05:02:02.638Z,958.81
2017-05-01T05:03:11.718Z,958.78
2017-05-01T05:04:21.059Z,958.77
2017-05-01T05:05:30.421Z,958.83
2017-05-01T05:06:39.139Z,958.78
2017-05-01T05:07:48.210Z,958.81
2017-05-01T05:08:57.282Z,958.79
2017-05-01T05:10:07.288Z,958.86
2017-05-01T05:11:16.039Z,958.89
2017-05-01T05:12:25.055Z,958.82
2017-05-01T05:13:33.815Z,958.84
2017-05-01T05:14:42.904Z,958.82
2017-05-01T05:15:51.972Z,958.92
2017-05-01T05:17:00.735Z,958.94
2017-05-01T05:18:09.751Z,958.92
2017-05-01T05:19:19.738Z,958.92
2017-05-01T05:20:28.810Z,958.96
2017-05-01T05:21:37.877Z,958.97
2017-05-01T05:22:46.950Z,958.99
2017-05-01T05:23:56.025Z,958.97
2017-05-01T05:25:05.403Z,958.96
2017-05-01T05:26:14.170Z,958.95
2017-05-01T05:27:22.938Z,958.98
2017-05-01T05:28:31.710Z,959.01
2017-05-01T05:29:41.582Z,959.05
2017-05-01T05:30:50.289Z,959.06
2017-05-01T05:31:59.000Z,959.06
2017-05-01T05:33:07.762Z,959.07
2017-05-01T05:34:16.828Z,959.12
2017-05-01T05:35:25.896Z,959.15
2017-05-01T05:36:34.956Z,959.15
2017-05-01T05:37:44.024Z,959.17
2017-05-01T05:38:53.417Z,959.21
2017-05-01T05:40:02.197Z,959.23
2017-05-01T05:41:11.558Z,959.3
2017-05-01T05:42:20.923Z,959.31
2017-05-01T05:43:30.239Z,959.31
2017-05-01T05:44:39.633Z,959.36
2017-05-01T05:45:48.325Z,959.34
2017-05-01T05:46:57.026Z,959.4
2017-05-01T05:48:06.136Z,959.37
2017-05-01T05:49:15.200Z,959.39
2017-05-01T05:50:24.224Z,959.39
2017-05-01T05:51:33.593Z,959.4
2017-05-01T05:52:42.666Z,959.39
2017-05-01T05:53:51.931Z,959.39
2017-05-01T05:55:00.944Z,959.32
2017-05-01T05:56:09.695Z,959.33
2017-05-01T05:57:18.714Z,959.32
2017-05-01T05:58:27.728Z,959.29
2017-05-01T05:59:37.102Z,959.33
2017-05-01T06:00:46.186Z,959.33
2017-05-01T06:01:55.265Z,959.37
2017-05-01T06:03:04.191Z,959.35
2017-05-01T06:04:13.591Z,959.42
2017-05-01T06:05:22.348Z,959.4
2017-05-01T06:06:31.728Z,959.38
2017-05-01T06:07:40.794Z,959.4
2017-05-01T06:08:50.167Z,959.41
2017-05-01T06:09:59.855Z,959.43
2017-05-01T06:11:09.224Z,959.45
2017-05-01T06:12:19.403Z,959.43
2017-05-01T06:13:28.175Z,959.47
2017-05-01T06:14:37.259Z,959.56
2017-05-01T06:15:46.634Z,959.55
2017-05-01T06:16:55.698Z,959.56
2017-05-01T06:18:04.459Z,959.68
2017-05-01T06:19:13.177Z,959.71
2017-05-01T06:20:22.553Z,959.68
2017-05-01T06:21:31.310Z,959.74
2017-05-01T06:22:40.022Z,959.82
2017-05-01T06:23:49.706Z,959.73
2017-05-01T06:24:59.320Z,959.78
2017-05-01T06:26:08.400Z,959.79
2017-05-01T06:27:17.181Z,959.84
2017-05-01T06:28:25.951Z,959.81
2017-05-01T06:29:35.046Z,959.82
2017-05-01T06:30:44.114Z,959.92
2017-05-01T06:31:53.141Z,959.94
2017-05-01T06:33:02.507Z,959.98
2017-05-01T06:34:11.532Z,960.03
2017-05-01T06:35:20.913Z,960.04
2017-05-01T06:36:30.026Z,960.07
2017-05-01T06:37:38.798Z,960.02
2017-05-01T06:38:48.179Z,960.14
2017-05-01T06:39:57.801Z,960.22
2017-05-01T06:41:07.171Z,960.17
2017-05-01T06:42:15.934Z,960.2
2017-05-01T06:43:25.252Z,960.22
2017-05-01T06:44:34.936Z,960.26
2017-05-01T06:45:43.715Z,960.26
2017-05-01T06:46:52.782Z,960.31
2017-05-01T06:48:01.872Z,960.29
2017-05-01T06:49:10.900Z,960.34
2017-05-01T06:50:20.287Z,960.37
2017-05-01T06:51:29.055Z,960.38
2017-05-01T06:52:38.129Z,960.39
2017-05-01T06:53:47.519Z,960.39
2017-05-01T06:54:56.879Z,960.47
2017-05-01T06:56:06.204Z,960.49
2017-05-01T06:57:15.278Z,960.48
2017-05-01T06:58:24.097Z,960.47
2017-05-01T06:59:32.863Z,960.47
2017-05-01T07:00:41.937Z,960.46
2017-05-01T07:01:50.708Z,960.45
2017-05-01T07:02:59.760Z,960.49
2017-05-01T07:04:08.794Z,960.51
2017-05-01T07:05:18.172Z,960.54
2017-05-01T07:06:26.944Z,960.54
2017-05-01T07:07:35.706Z,960.62
2017-05-01T07:08:45.024Z,960.58
2017-05-01T07:09:54.415Z,960.6
2017-05-01T07:11:03.488Z,960.58
2017-05-01T07:12:12.572Z,960.58
2017-05-01T07:13:21.646Z,960.64
2017-05-01T07:14:31.331Z,960.63
2017-05-01T07:15:40.411Z,960.69
2017-05-01T07:16:49.486Z,960.71
2017-05-01T07:17:58.564Z,960.71
2017-05-01T07:19:07.950Z,960.7
2017-05-01T07:20:17.643Z,960.74
2017-05-01T07:21:26.706Z,960.71
2017-05-01T07:22:35.464Z,960.77
2017-05-01T07:23:44.484Z,960.85
2017-05-01T07:24:53.255Z,960.81
2017-05-01T07:26:02.645Z,960.83
2017-05-01T07:27:11.703Z,960.81
2017-05-01T07:28:20.412Z,960.83
2017-05-01T07:29:29.492Z,960.81
2017-05-01T07:30:38.550Z,960.84
2017-05-01T07:31:47.262Z,960.85
2017-05-01T07:32:56.026Z,960.83
2017-05-01T07:34:04.786Z,960.85
2017-05-01T07:35:13.852Z,960.86
2017-05-01T07:36:22.908Z,960.95
2017-05-01T07:37:31.627Z,960.92
2017-05-01T07:38:40.698Z,960.94
2017-05-01T07:39:50.406Z,960.92
2017-05-01T07:40:59.428Z,960.96
2017-05-01T07:42:09.135Z,960.93
2017-05-01T07:43:17.906Z,960.95
2017-05-01T07:44:27.290Z,960.97
2017-05-01T07:45:36.659Z,961.01
2017-05-01T07:46:46.352Z,961.01
2017-05-01T07:47:55.129Z,961.03
2017-05-01T07:49:04.202Z,961.08
2017-05-01T07:50:13.578Z,961.06
2017-05-01T07:51:22.640Z,961.08
2017-05-01T07:52:31.406Z,961.12
2017-05-01T07:53:40.480Z,961.14
2017-05-01T07:54:49.861Z,961.24
2017-05-01T07:55:58.949Z,961.19
2017-05-01T07:57:08.018Z,961.2
2017-05-01T07:58:16.764Z,961.24
2017-05-01T07:59:25.802Z,961.23
2017-05-01T08:00:34.875Z,961.26
2017-05-01T08:01:43.948Z,961.22
2017-05-01T08:02:52.716Z,961.25
2017-05-01T08:04:02.397Z,961.27
2017-05-01T08:05:11.112Z,961.3
2017-05-01T08:06:19.878Z,961.35
2017-05-01T08:07:29.276Z,961.38
2017-05-01T08:08:38.649Z,961.4
2017-05-01T08:09:47.670Z,961.45
2017-05-01T08:10:57.373Z,961.41
2017-05-01T08:12:06.136Z,961.45
2017-05-01T08:13:14.897Z,961.46
2017-05-01T08:14:24.264Z,961.45
2017-05-01T08:15:33.273Z,961.5
2017-05-01T08:16:42.282Z,961.5
2017-05-01T08:17:51.303Z,961.49
2017-05-01T08:19:00.991Z,961.49
2017-05-01T08:20:10.072Z,961.52
2017-05-01T08:21:19.139Z,961.56
2017-05-01T08:22:28.517Z,961.55
2017-05-01T08:23:37.301Z,961.6
2017-05-01T08:24:46.061Z,961.62
2017-05-01T08:25:54.832Z,961.62
2017-05-01T08:27:03.590Z,961.66
2017-05-01T08:28:12.671Z,961.67
2017-05-01T08:29:22.044Z,961.65
2017-05-01T08:30:31.074Z,961.67
2017-05-01T08:31:39.837Z,961.65
2017-05-01T08:32:48.632Z,961.68
2017-05-01T08:33:57.711Z,961.66
2017-05-01T08:35:07.084Z,961.67
2017-05-01T08:36:16.163Z,961.69
2017-05-01T08:37:24.941Z,961.76
2017-05-01T08:38:34.314Z,961.73
2017-05-01T08:39:43.028Z,961.76
2017-05-01T08:40:52.400Z,961.74
2017-05-01T08:42:01.715Z,961.79
2017-05-01T08:43:10.488Z,961.74
2017-05-01T08:44:19.566Z,961.77
2017-05-01T08:45:28.645Z,961.76
2017-05-01T08:46:37.409Z,961.76
2017-05-01T08:47:47.102Z,961.78
2017-05-01T08:48:56.495Z,961.75
2017-05-01T08:50:05.563Z,961.79
2017-05-01T08:51:14.286Z,961.77
2017-05-01T08:52:23.352Z,961.8
2017-05-01T08:53:32.372Z,961.81
2017-05-01T08:54:41.761Z,961.84
2017-05-01T08:55:50.844Z,961.8
2017-05-01T08:56:59.923Z,961.82
2017-05-01T08:58:08.998Z,961.84
2017-05-01T08:59:18.375Z,961.85
2017-05-01T09:00:28.314Z,961.82
2017-05-01T09:01:37.999Z,961.86
2017-05-01T09:02:46.757Z,961.88
2017-05-01T09:03:55.880Z,961.91
2017-05-01T09:05:04.967Z,961.89
2017-05-01T09:06:14.041Z,961.87
2017-05-01T09:07:22.815Z,961.91
2017-05-01T09:08:31.588Z,961.92
2017-05-01T09:09:40.660Z,961.93
2017-05-01T09:10:49.441Z,961.95
2017-05-01T09:11:58.208Z,961.97
2017-05-01T09:13:07.279Z,961.97
2017-05-01T09:14:16.673Z,961.99
2017-05-01T09:15:26.059Z,962
2017-05-01T09:16:34.830Z,962.01
2017-05-01T09:17:43.898Z,961.99
2017-05-01T09:18:52.913Z,962.01
2017-05-01T09:20:01.948Z,962.03
2017-05-01T09:21:11.029Z,962.03
2017-05-01T09:22:20.102Z,962.01
2017-05-01T09:23:29.190Z,962.01
2017-05-01T09:24:38.876Z,962.05
2017-05-01T09:25:47.645Z,961.99
2017-05-01T09:26:56.422Z,962
2017-05-01T09:28:05.797Z,962.06
2017-05-01T09:29:14.886Z,962.01
2017-05-01T09:30:23.972Z,962.07
2017-05-01T09:31:33.045Z,962.05
2017-05-01T09:32:41.812Z,962.08
2017-05-01T09:33:51.803Z,962.12
2017-05-01T09:35:01.192Z,962.11
2017-05-01T09:36:10.271Z,962.06
2017-05-01T09:37:19.661Z,962.11
2017-05-01T09:38:29.346Z,962.16
2017-05-01T09:39:38.730Z,962.14
2017-05-01T09:40:47.801Z,962.11
2017-05-01T09:41:56.510Z,962.14
2017-05-01T09:43:05.277Z,962.16
2017-05-01T09:44:15.208Z,962.15
2017-05-01T09:45:24.854Z,962.16
2017-05-01T09:46:33.621Z,962.13
2017-05-01T09:47:42.398Z,962.14
2017-05-01T09:48:51.791Z,962.14
2017-05-01T09:50:00.850Z,962.16
2017-05-01T09:51:09.858Z,962.12
2017-05-01T09:52:18.867Z,962.21
2017-05-01T09:53:27.581Z,962.19
2017-05-01T09:54:36.654Z,962.22
2017-05-01T09:55:46.032Z,962.23
2017-05-01T09:56:55.103Z,962.26
2017-05-01T09:58:04.795Z,962.26
2017-05-01T09:59:13.551Z,962.32
2017-05-01T10:00:22.569Z,962.33
2017-05-01T10:01:31.554Z,962.3
2017-05-01T10:02:40.651Z,962.34
2017-05-01T10:03:50.593Z,962.34
2017-05-01T10:05:00.286Z,962.34
2017-05-01T10:06:09.352Z,962.36
2017-05-01T10:07:18.061Z,962.36
2017-05-01T10:08:26.833Z,962.35
2017-05-01T10:09:36.527Z,962.38
2017-05-01T10:10:45.552Z,962.41
2017-05-01T10:11:54.342Z,962.38
2017-05-01T10:13:03.116Z,962.39
2017-05-01T10:14:12.492Z,962.42
2017-05-01T10:15:21.306Z,962.43
2017-05-01T10:16:30.075Z,962.42
2017-05-01T10:17:39.148Z,962.44
2017-05-01T10:18:48.727Z,962.44
2017-05-01T10:19:58.660Z,962.41
2017-05-01T10:21:07.977Z,962.45
2017-05-01T10:22:17.054Z,962.47
2017-05-01T10:23:26.117Z,962.4
2017-05-01T10:24:35.175Z,962.46
2017-05-01T10:25:43.945Z,962.46
2017-05-01T10:26:53.003Z,962.46
2017-05-01T10:28:02.373Z,962.48
2017-05-01T10:29:11.698Z,962.49
2017-05-01T10:30:20.773Z,962.47
2017-05-01T10:31:29.527Z,962.55
2017-05-01T10:32:38.545Z,962.57
2017-05-01T10:33:47.612Z,962.55
2017-05-01T10:34:56.963Z,962.54
2017-05-01T10:36:06.349Z,962.62
2017-05-01T10:37:15.126Z,962.57
2017-05-01T10:38:24.786Z,962.59
2017-05-01T10:39:34.153Z,962.62
2017-05-01T10:40:42.859Z,962.62
2017-05-01T10:41:51.880Z,962.64
2017-05-01T10:43:00.898Z,962.64
2017-05-01T10:44:10.582Z,962.63
2017-05-01T10:45:19.951Z,962.61
2017-05-01T10:46:28.935Z,962.63
2017-05-01T10:47:37.703Z,962.62
2017-05-01T10:48:47.064Z,962.62
2017-05-01T10:49:56.435Z,962.61
2017-05-01T10:51:05.163Z,962.63
2017-05-01T10:52:14.234Z,962.63
2017-05-01T10:53:23.603Z,962.63
2017-05-01T10:54:33.293Z,962.64
2017-05-01T10:55:42.393Z,962.68
2017-05-01T10:56:51.483Z,962.65
2017-05-01T10:58:00.555Z,962.64
2017-05-01T10:59:09.627Z,962.66
2017-05-01T11:00:19.622Z,962.67
2017-05-01T11:01:28.419Z,962.68
2017-05-01T11:02:37.193Z,962.66
2017-05-01T11:03:46.885Z,962.66
2017-05-01T11:04:55.963Z,962.71
2017-05-01T11:06:05.036Z,962.7
2017-05-01T11:07:13.808Z,962.76
2017-05-01T11:08:22.886Z,962.81
2017-05-01T11:09:31.667Z,962.77
2017-05-01T11:10:40.735Z,962.81
2017-05-01T11:11:49.816Z,962.86
2017-05-01T11:12:58.528Z,962.82
2017-05-01T11:14:07.613Z,962.85
2017-05-01T11:15:17.319Z,962.85
2017-05-01T11:16:26.677Z,962.86
2017-05-01T11:17:35.693Z,962.87
2017-05-01T11:18:44.770Z,962.85
2017-05-01T11:19:53.550Z,962.87
2017-05-01T11:21:02.632Z,962.9
2017-05-01T11:22:11.498Z,962.92
2017-05-01T11:23:20.571Z,962.92
2017-05-01T11:24:29.954Z,962.92
2017-05-01T11:25:39.341Z,962.92
2017-05-01T11:26:48.411Z,962.94
2017-05-01T11:27:57.492Z,962.92
2017-05-01T11:29:07.124Z,962.92
2017-05-01T11:30:15.900Z,962.92
2017-05-01T11:31:24.967Z,962.92
2017-05-01T11:32:33.747Z,962.95
2017-05-01T11:33:42.831Z,962.95
2017-05-01T11:34:51.917Z,962.94
2017-05-01T11:36:00.709Z,962.94
2017-05-01T11:37:09.798Z,963.02
2017-05-01T11:38:18.561Z,962.99
2017-05-01T11:39:27.646Z,962.96
2017-05-01T11:40:36.734Z,963.03
2017-05-01T11:41:45.815Z,963.04
2017-05-01T11:42:54.871Z,963.02
2017-05-01T11:44:03.884Z,963.03
2017-05-01T11:45:13.209Z,962.98
2017-05-01T11:46:22.298Z,962.98
2017-05-01T11:47:31.677Z,963.02
2017-05-01T11:48:41.664Z,963.02
2017-05-01T11:49:50.437Z,962.99
2017-05-01T11:50:59.519Z,963.02
2017-05-01T11:52:08.654Z,963.06
2017-05-01T11:53:17.653Z,963.07
2017-05-01T11:54:26.678Z,963.1
2017-05-01T11:55:35.436Z,963.11
2017-05-01T11:56:44.459Z,963.11
2017-05-01T11:57:53.233Z,963.15
2017-05-01T11:59:02.844Z,963.14
2017-05-01T12:00:11.873Z,963.15
2017-05-01T12:01:20.947Z,963.17
2017-05-01T12:02:29.707Z,963.22
2017-05-01T12:03:38.781Z,963.23
2017-05-01T12:04:48.712Z,963.24
2017-05-01T12:05:57.727Z,963.23
2017-05-01T12:07:06.449Z,963.28
2017-05-01T12:08:15.223Z,963.3
2017-05-01T12:09:24.592Z,963.3
2017-05-01T12:10:33.625Z,963.32
2017-05-01T12:11:42.448Z,963.31
2017-05-01T12:12:51.267Z,963.31
2017-05-01T12:14:00.643Z,963.36
2017-05-01T12:15:10.024Z,963.36
2017-05-01T12:16:18.822Z,963.35
2017-05-01T12:17:27.597Z,963.41
2017-05-01T12:18:36.660Z,963.42
2017-05-01T12:19:45.872Z,963.41
2017-05-01T12:20:55.193Z,963.42
2017-05-01T12:22:04.572Z,963.47
2017-05-01T12:23:13.641Z,963.44
2017-05-01T12:24:22.734Z,963.5
2017-05-01T12:25:31.790Z,963.51
2017-05-01T12:26:40.565Z,963.52
2017-05-01T12:27:49.340Z,963.53
2017-05-01T12:28:58.405Z,963.54
2017-05-01T12:30:07.552Z,963.55
2017-05-01T12:31:16.326Z,963.57
2017-05-01T12:32:25.718Z,963.57
2017-05-01T12:33:34.814Z,963.61
2017-05-01T12:34:44.492Z,963.58
2017-05-01T12:35:53.245Z,963.63
2017-05-01T12:37:01.965Z,963.62
2017-05-01T12:38:10.710Z,963.59
2017-05-01T12:39:19.727Z,963.63
2017-05-01T12:40:29.423Z,963.63
2017-05-01T12:41:38.811Z,963.65
2017-05-01T12:42:47.516Z,963.67
2017-05-01T12:43:56.847Z,963.68
2017-05-01T12:45:06.843Z,963.68
2017-05-01T12:46:15.920Z,963.74
2017-05-01T12:47:24.989Z,963.73
2017-05-01T12:48:34.324Z,963.73
2017-05-01T12:49:43.745Z,963.7
2017-05-01T12:50:52.456Z,963.71
2017-05-01T12:52:01.219Z,963.71
2017-05-01T12:53:10.660Z,963.72
2017-05-01T12:54:20.340Z,963.7
2017-05-01T12:55:29.701Z,963.75
2017-05-01T12:56:38.799Z,963.73
2017-05-01T12:57:47.583Z,963.73
2017-05-01T12:58:57.591Z,963.76
2017-05-01T13:00:06.614Z,963.78
2017-05-01T13:01:15.378Z,963.74
2017-05-01T13:02:24.420Z,963.76
2017-05-01T13:03:33.138Z,963.77
2017-05-01T13:04:42.761Z,963.8
2017-05-01T13:05:51.824Z,963.82
2017-05-01T13:07:01.065Z,963.87
2017-05-01T13:08:09.770Z,963.89
2017-05-01T13:09:19.094Z,963.86
2017-05-01T13:10:27.870Z,963.88
2017-05-01T13:11:36.662Z,963.91
2017-05-01T13:12:45.742Z,963.97
2017-05-01T13:13:55.120Z,963.92
2017-05-01T13:15:04.808Z,963.96
2017-05-01T13:16:13.888Z,963.95
2017-05-01T13:17:22.654Z,964
2017-05-01T13:18:31.680Z,963.99
2017-05-01T13:19:41.054Z,963.97
2017-05-01T13:20:50.104Z,963.98
2017-05-01T13:21:59.421Z,964.03
2017-05-01T13:23:08.790Z,964
2017-05-01T13:24:17.857Z,964.05
2017-05-01T13:25:27.179Z,964.06
2017-05-01T13:26:36.557Z,964.04
2017-05-01T13:27:45.328Z,964.07
2017-05-01T13:28:54.406Z,964.11
2017-05-01T13:30:03.787Z,964.12
2017-05-01T13:31:12.566Z,964.16
2017-05-01T13:32:21.958Z,964.14
2017-05-01T13:33:31.034Z,964.24
2017-05-01T13:34:40.416Z,964.23
2017-05-01T13:35:49.774Z,964.18
2017-05-01T13:36:59.096Z,964.2
2017-05-01T13:38:07.892Z,964.21
2017-05-01T13:39:17.282Z,964.21
2017-05-01T13:40:26.965Z,964.23
2017-05-01T13:41:35.749Z,964.25
2017-05-01T13:42:44.832Z,964.26
2017-05-01T13:43:53.608Z,964.25
2017-05-01T13:45:02.924Z,964.21
2017-05-01T13:46:11.699Z,964.18
2017-05-01T13:47:20.749Z,964.23
2017-05-01T13:48:29.824Z,964.28
2017-05-01T13:49:39.512Z,964.24
2017-05-01T13:50:48.278Z,964.23
2017-05-01T13:51:57.039Z,964.2
2017-05-01T13:53:06.405Z,964.25
2017-05-01T13:54:15.717Z,964.22
2017-05-01T13:55:25.340Z,964.22
2017-05-01T13:56:34.352Z,964.29
2017-05-01T13:57:43.118Z,964.3
2017-05-01T13:58:52.805Z,964.32
2017-05-01T14:00:01.885Z,964.26
2017-05-01T14:01:10.651Z,964.28
2017-05-01T14:02:19.414Z,964.31
2017-05-01T14:03:28.801Z,964.33
2017-05-01T14:04:37.575Z,964.3
2017-05-01T14:05:46.350Z,964.32
2017-05-01T14:06:55.116Z,964.34
2017-05-01T14:08:03.877Z,964.39
2017-05-01T14:09:12.645Z,964.4
2017-05-01T14:10:22.065Z,964.36
2017-05-01T14:11:30.839Z,964.44
2017-05-01T14:12:39.611Z,964.41
2017-05-01T14:13:48.677Z,964.41
2017-05-01T14:14:57.991Z,964.43
2017-05-01T14:16:06.747Z,964.43
2017-05-01T14:17:15.770Z,964.45
2017-05-01T14:18:24.854Z,964.44
2017-05-01T14:19:34.740Z,964.48
2017-05-01T14:20:44.425Z,964.47
2017-05-01T14:21:53.489Z,964.48
2017-05-01T14:23:02.505Z,964.5
2017-05-01T14:24:11.885Z,964.5
2017-05-01T14:25:20.964Z,964.52
2017-05-01T14:26:29.739Z,964.51
2017-05-01T14:27:38.898Z,964.55